sensor_id;sensor_type;location;lat;lon;timestamp;P1;durP1;ratioP1;P2;durP2;ratioP2
31730;SDS011;18310;55.586;12.286;2024-02-16T00:02:37;64.57;;;4.80;;
31730;SDS011;18310;55.586;12.286;2024-02-16T00:05:41;78.28;;;4.97;;
31730;SDS011;18310;55.586;12.286;2024-02-16T00:08:45;83.03;;;5.23;;
31730;SDS011;18310;55.586;12.286;2024-02-16T00:11:49;63.78;;;4.65;;
31730;SDS011;18310;55.586;12.286;2024-02-16T00:14:54;49.10;;;4.25;;
31730;SDS011;18310;55.586;12.286;2024-02-16T00:17:57;86.07;;;4.82;;
31730;SDS011;18310;55.586;12.286;2024-02-16T00:21:01;76.97;;;4.83;;
31730;SDS011;18310;55.586;12.286;2024-02-16T00:24:06;72.68;;;4.55;;
31730;SDS011;18310;55.586;12.286;2024-02-16T00:27:09;64.43;;;5.18;;
31730;SDS011;18310;55.586;12.286;2024-02-16T00:30:13;47.57;;;4.00;;
31730;SDS011;18310;55.586;12.286;2024-02-16T00:33:17;88.20;;;5.22;;
31730;SDS011;18310;55.586;12.286;2024-02-16T00:36:21;67.07;;;4.78;;
31730;SDS011;18310;55.586;12.286;2024-02-16T00:39:25;61.33;;;4.53;;
31730;SDS011;18310;55.586;12.286;2024-02-16T00:42:29;91.35;;;6.03;;
31730;SDS011;18310;55.586;12.286;2024-02-16T00:45:33;87.53;;;5.65;;
31730;SDS011;18310;55.586;12.286;2024-02-16T00:48:36;97.85;;;6.50;;
31730;SDS011;18310;55.586;12.286;2024-02-16T00:51:49;79.35;;;5.60;;
31730;SDS011;18310;55.586;12.286;2024-02-16T00:57:58;118.15;;;7.45;;
31730;SDS011;18310;55.586;12.286;2024-02-16T01:01:01;94.85;;;5.65;;
31730;SDS011;18310;55.586;12.286;2024-02-16T01:04:05;138.43;;;8.07;;
31730;SDS011;18310;55.586;12.286;2024-02-16T01:07:10;178.30;;;8.93;;
31730;SDS011;18310;55.586;12.286;2024-02-16T01:10:16;124.93;;;7.27;;
31730;SDS011;18310;55.586;12.286;2024-02-16T01:13:28;141.20;;;7.68;;
31730;SDS011;18310;55.586;12.286;2024-02-16T01:16:53;149.70;;;8.05;;
31730;SDS011;18310;55.586;12.286;2024-02-16T01:19:57;135.37;;;8.47;;
31730;SDS011;18310;55.586;12.286;2024-02-16T01:23:00;170.20;;;8.83;;
31730;SDS011;18310;55.586;12.286;2024-02-16T01:26:25;112.38;;;8.65;;
31730;SDS011;18310;55.586;12.286;2024-02-16T01:29:28;128.90;;;8.90;;
31730;SDS011;18310;55.586;12.286;2024-02-16T01:32:31;121.60;;;8.68;;
31730;SDS011;18310;55.586;12.286;2024-02-16T01:35:34;111.00;;;7.50;;
31730;SDS011;18310;55.586;12.286;2024-02-16T01:38:37;157.68;;;10.10;;
31730;SDS011;18310;55.586;12.286;2024-02-16T01:41:41;146.57;;;9.52;;
31730;SDS011;18310;55.586;12.286;2024-02-16T01:44:45;103.18;;;8.63;;
31730;SDS011;18310;55.586;12.286;2024-02-16T01:47:49;190.32;;;10.60;;
31730;SDS011;18310;55.586;12.286;2024-02-16T01:50:53;173.52;;;10.88;;
31730;SDS011;18310;55.586;12.286;2024-02-16T01:53:57;130.50;;;9.45;;
31730;SDS011;18310;55.586;12.286;2024-02-16T01:57:02;166.52;;;9.70;;
31730;SDS011;18310;55.586;12.286;2024-02-16T02:00:05;157.43;;;10.70;;
31730;SDS011;18310;55.586;12.286;2024-02-16T02:03:09;176.55;;;11.57;;
31730;SDS011;18310;55.586;12.286;2024-02-16T02:06:37;155.32;;;10.77;;
31730;SDS011;18310;55.586;12.286;2024-02-16T02:09:40;120.03;;;9.35;;
31730;SDS011;18310;55.586;12.286;2024-02-16T02:12:44;163.00;;;11.13;;
31730;SDS011;18310;55.586;12.286;2024-02-16T02:15:47;142.67;;;10.33;;
31730;SDS011;18310;55.586;12.286;2024-02-16T02:18:50;229.68;;;11.75;;
31730;SDS011;18310;55.586;12.286;2024-02-16T02:21:55;182.77;;;12.27;;
31730;SDS011;18310;55.586;12.286;2024-02-16T02:24:59;205.15;;;11.98;;
31730;SDS011;18310;55.586;12.286;2024-02-16T02:28:03;209.52;;;12.75;;
31730;SDS011;18310;55.586;12.286;2024-02-16T02:31:07;190.13;;;12.07;;
31730;SDS011;18310;55.586;12.286;2024-02-16T02:34:12;173.45;;;11.23;;
31730;SDS011;18310;55.586;12.286;2024-02-16T02:37:16;163.35;;;11.20;;
31730;SDS011;18310;55.586;12.286;2024-02-16T02:40:22;148.50;;;10.43;;
31730;SDS011;18310;55.586;12.286;2024-02-16T02:43:26;254.65;;;13.00;;
31730;SDS011;18310;55.586;12.286;2024-02-16T02:46:30;269.25;;;14.02;;
31730;SDS011;18310;55.586;12.286;2024-02-16T02:49:34;265.60;;;14.05;;
31730;SDS011;18310;55.586;12.286;2024-02-16T02:53:01;198.75;;;12.88;;
31730;SDS011;18310;55.586;12.286;2024-02-16T02:56:05;164.55;;;11.00;;
31730;SDS011;18310;55.586;12.286;2024-02-16T02:59:10;157.95;;;11.73;;
31730;SDS011;18310;55.586;12.286;2024-02-16T03:02:14;191.73;;;13.80;;
31730;SDS011;18310;55.586;12.286;2024-02-16T03:05:18;183.05;;;12.73;;
31730;SDS011;18310;55.586;12.286;2024-02-16T03:08:25;224.43;;;16.15;;
31730;SDS011;18310;55.586;12.286;2024-02-16T03:11:29;181.65;;;14.88;;
31730;SDS011;18310;55.586;12.286;2024-02-16T03:14:35;176.95;;;14.15;;
31730;SDS011;18310;55.586;12.286;2024-02-16T03:17:44;130.88;;;12.95;;
31730;SDS011;18310;55.586;12.286;2024-02-16T03:20:51;131.70;;;13.25;;
31730;SDS011;18310;55.586;12.286;2024-02-16T03:23:57;86.25;;;12.82;;
31730;SDS011;18310;55.586;12.286;2024-02-16T03:27:02;156.60;;;14.93;;
31730;SDS011;18310;55.586;12.286;2024-02-16T03:30:06;159.63;;;13.75;;
31730;SDS011;18310;55.586;12.286;2024-02-16T03:33:12;114.85;;;12.23;;
31730;SDS011;18310;55.586;12.286;2024-02-16T03:36:19;204.77;;;15.90;;
31730;SDS011;18310;55.586;12.286;2024-02-16T03:45:33;135.65;;;12.13;;
31730;SDS011;18310;55.586;12.286;2024-02-16T03:48:38;89.70;;;11.95;;
31730;SDS011;18310;55.586;12.286;2024-02-16T03:51:45;80.40;;;10.48;;
31730;SDS011;18310;55.586;12.286;2024-02-16T03:55:03;74.15;;;11.65;;
31730;SDS011;18310;55.586;12.286;2024-02-16T03:58:11;92.20;;;12.40;;
31730;SDS011;18310;55.586;12.286;2024-02-16T04:01:17;23.92;;;10.10;;
31730;SDS011;18310;55.586;12.286;2024-02-16T04:04:21;108.68;;;13.60;;
31730;SDS011;18310;55.586;12.286;2024-02-16T04:07:40;90.75;;;12.38;;
31730;SDS011;18310;55.586;12.286;2024-02-16T04:16:53;54.15;;;10.75;;
31730;SDS011;18310;55.586;12.286;2024-02-16T04:20:23;140.30;;;14.57;;
31730;SDS011;18310;55.586;12.286;2024-02-16T04:23:30;48.95;;;11.95;;
31730;SDS011;18310;55.586;12.286;2024-02-16T04:27:25;131.63;;;14.57;;
31730;SDS011;18310;55.586;12.286;2024-02-16T04:30:30;157.75;;;14.80;;
31730;SDS011;18310;55.586;12.286;2024-02-16T04:33:34;191.02;;;15.55;;
31730;SDS011;18310;55.586;12.286;2024-02-16T04:36:37;276.25;;;19.13;;
31730;SDS011;18310;55.586;12.286;2024-02-16T04:39:42;260.67;;;17.88;;
31730;SDS011;18310;55.586;12.286;2024-02-16T04:42:47;228.75;;;16.58;;
31730;SDS011;18310;55.586;12.286;2024-02-16T04:45:51;206.98;;;15.63;;
31730;SDS011;18310;55.586;12.286;2024-02-16T04:48:56;147.77;;;14.40;;
31730;SDS011;18310;55.586;12.286;2024-02-16T04:52:00;167.30;;;15.57;;
31730;SDS011;18310;55.586;12.286;2024-02-16T04:55:04;155.70;;;13.20;;
31730;SDS011;18310;55.586;12.286;2024-02-16T04:58:12;88.82;;;11.82;;
31730;SDS011;18310;55.586;12.286;2024-02-16T05:01:16;33.80;;;9.20;;
31730;SDS011;18310;55.586;12.286;2024-02-16T05:04:21;88.30;;;10.50;;
31730;SDS011;18310;55.586;12.286;2024-02-16T05:07:27;57.83;;;10.60;;
31730;SDS011;18310;55.586;12.286;2024-02-16T05:10:33;109.13;;;12.88;;
31730;SDS011;18310;55.586;12.286;2024-02-16T05:13:39;55.58;;;11.00;;
31730;SDS011;18310;55.586;12.286;2024-02-16T05:16:44;105.63;;;12.95;;
31730;SDS011;18310;55.586;12.286;2024-02-16T05:22:52;89.38;;;12.55;;
31730;SDS011;18310;55.586;12.286;2024-02-16T05:25:57;42.08;;;10.02;;
31730;SDS011;18310;55.586;12.286;2024-02-16T05:29:02;58.45;;;11.40;;
31730;SDS011;18310;55.586;12.286;2024-02-16T05:32:10;26.23;;;9.82;;
31730;SDS011;18310;55.586;12.286;2024-02-16T05:35:29;42.75;;;9.77;;
31730;SDS011;18310;55.586;12.286;2024-02-16T05:38:37;32.17;;;10.00;;
31730;SDS011;18310;55.586;12.286;2024-02-16T05:41:57;16.20;;;9.43;;
31730;SDS011;18310;55.586;12.286;2024-02-16T05:45:13;23.95;;;10.75;;
31730;SDS011;18310;55.586;12.286;2024-02-16T05:48:18;18.52;;;10.32;;
31730;SDS011;18310;55.586;12.286;2024-02-16T05:51:24;18.10;;;11.15;;
31730;SDS011;18310;55.586;12.286;2024-02-16T05:54:49;16.88;;;10.70;;
31730;SDS011;18310;55.586;12.286;2024-02-16T05:57:53;17.50;;;10.77;;
31730;SDS011;18310;55.586;12.286;2024-02-16T06:00:57;22.42;;;11.20;;
31730;SDS011;18310;55.586;12.286;2024-02-16T06:04:07;20.70;;;10.77;;
31730;SDS011;18310;55.586;12.286;2024-02-16T06:07:11;17.55;;;9.90;;
31730;SDS011;18310;55.586;12.286;2024-02-16T06:10:17;17.95;;;9.75;;
31730;SDS011;18310;55.586;12.286;2024-02-16T06:13:21;15.32;;;10.60;;
31730;SDS011;18310;55.586;12.286;2024-02-16T06:16:25;17.65;;;10.45;;
31730;SDS011;18310;55.586;12.286;2024-02-16T06:19:29;15.15;;;10.57;;
31730;SDS011;18310;55.586;12.286;2024-02-16T06:22:34;16.75;;;10.18;;
31730;SDS011;18310;55.586;12.286;2024-02-16T06:25:40;17.73;;;11.00;;
31730;SDS011;18310;55.586;12.286;2024-02-16T06:28:44;15.82;;;10.60;;
31730;SDS011;18310;55.586;12.286;2024-02-16T06:31:48;17.80;;;9.63;;
31730;SDS011;18310;55.586;12.286;2024-02-16T06:34:52;15.07;;;8.68;;
31730;SDS011;18310;55.586;12.286;2024-02-16T06:41:01;15.32;;;9.98;;
31730;SDS011;18310;55.586;12.286;2024-02-16T06:44:06;16.30;;;10.38;;
31730;SDS011;18310;55.586;12.286;2024-02-16T06:47:09;14.05;;;8.23;;
31730;SDS011;18310;55.586;12.286;2024-02-16T06:50:15;13.98;;;8.85;;
31730;SDS011;18310;55.586;12.286;2024-02-16T06:53:20;15.20;;;8.93;;
31730;SDS011;18310;55.586;12.286;2024-02-16T06:56:31;16.52;;;8.73;;
31730;SDS011;18310;55.586;12.286;2024-02-16T06:59:36;13.90;;;8.43;;
31730;SDS011;18310;55.586;12.286;2024-02-16T07:02:40;20.98;;;8.98;;
31730;SDS011;18310;55.586;12.286;2024-02-16T07:05:44;11.75;;;7.70;;
31730;SDS011;18310;55.586;12.286;2024-02-16T07:08:48;13.43;;;7.97;;
31730;SDS011;18310;55.586;12.286;2024-02-16T07:11:55;15.80;;;7.68;;
31730;SDS011;18310;55.586;12.286;2024-02-16T07:15:00;15.30;;;8.10;;
31730;SDS011;18310;55.586;12.286;2024-02-16T07:21:09;18.63;;;7.72;;
31730;SDS011;18310;55.586;12.286;2024-02-16T07:24:14;11.02;;;7.38;;
31730;SDS011;18310;55.586;12.286;2024-02-16T07:27:23;10.95;;;7.40;;
31730;SDS011;18310;55.586;12.286;2024-02-16T07:30:31;13.43;;;8.10;;
31730;SDS011;18310;55.586;12.286;2024-02-16T07:33:46;10.13;;;6.93;;
31730;SDS011;18310;55.586;12.286;2024-02-16T07:36:50;11.75;;;7.18;;
31730;SDS011;18310;55.586;12.286;2024-02-16T07:39:54;12.73;;;7.88;;
31730;SDS011;18310;55.586;12.286;2024-02-16T07:43:00;12.30;;;7.70;;
31730;SDS011;18310;55.586;12.286;2024-02-16T07:46:05;11.75;;;6.85;;
31730;SDS011;18310;55.586;12.286;2024-02-16T07:49:10;9.88;;;7.07;;
31730;SDS011;18310;55.586;12.286;2024-02-16T07:52:14;10.65;;;6.95;;
31730;SDS011;18310;55.586;12.286;2024-02-16T07:55:19;11.57;;;7.35;;
31730;SDS011;18310;55.586;12.286;2024-02-16T07:58:27;10.80;;;6.80;;
31730;SDS011;18310;55.586;12.286;2024-02-16T08:01:32;10.50;;;6.32;;
31730;SDS011;18310;55.586;12.286;2024-02-16T08:04:37;8.10;;;6.15;;
31730;SDS011;18310;55.586;12.286;2024-02-16T08:07:43;9.23;;;6.32;;
31730;SDS011;18310;55.586;12.286;2024-02-16T08:10:47;10.60;;;6.80;;
31730;SDS011;18310;55.586;12.286;2024-02-16T08:13:53;9.57;;;6.00;;
31730;SDS011;18310;55.586;12.286;2024-02-16T08:16:57;10.18;;;6.35;;
31730;SDS011;18310;55.586;12.286;2024-02-16T08:20:17;10.50;;;5.93;;
31730;SDS011;18310;55.586;12.286;2024-02-16T08:23:23;9.77;;;6.05;;
31730;SDS011;18310;55.586;12.286;2024-02-16T08:29:33;10.07;;;5.50;;
31730;SDS011;18310;55.586;12.286;2024-02-16T08:32:37;10.52;;;6.18;;
31730;SDS011;18310;55.586;12.286;2024-02-16T08:35:41;12.18;;;6.35;;
31730;SDS011;18310;55.586;12.286;2024-02-16T08:38:48;11.15;;;5.90;;
31730;SDS011;18310;55.586;12.286;2024-02-16T08:41:57;10.18;;;5.90;;
31730;SDS011;18310;55.586;12.286;2024-02-16T08:45:04;10.43;;;6.05;;
31730;SDS011;18310;55.586;12.286;2024-02-16T08:48:08;10.20;;;6.15;;
31730;SDS011;18310;55.586;12.286;2024-02-16T08:51:12;11.52;;;6.35;;
31730;SDS011;18310;55.586;12.286;2024-02-16T08:54:17;10.48;;;5.70;;
31730;SDS011;18310;55.586;12.286;2024-02-16T08:57:21;10.10;;;6.20;;
31730;SDS011;18310;55.586;12.286;2024-02-16T09:00:27;10.98;;;6.68;;
31730;SDS011;18310;55.586;12.286;2024-02-16T09:03:31;14.20;;;7.10;;
31730;SDS011;18310;55.586;12.286;2024-02-16T09:06:41;17.35;;;6.93;;
31730;SDS011;18310;55.586;12.286;2024-02-16T09:09:45;15.98;;;6.50;;
31730;SDS011;18310;55.586;12.286;2024-02-16T09:12:51;12.20;;;6.32;;
31730;SDS011;18310;55.586;12.286;2024-02-16T09:16:06;13.18;;;6.72;;
31730;SDS011;18310;55.586;12.286;2024-02-16T09:19:11;12.65;;;6.78;;
31730;SDS011;18310;55.586;12.286;2024-02-16T09:22:19;18.20;;;6.82;;
31730;SDS011;18310;55.586;12.286;2024-02-16T09:25:41;14.43;;;7.03;;
31730;SDS011;18310;55.586;12.286;2024-02-16T09:28:48;15.38;;;6.53;;
31730;SDS011;18310;55.586;12.286;2024-02-16T09:31:53;13.65;;;6.07;;
31730;SDS011;18310;55.586;12.286;2024-02-16T09:34:57;11.80;;;6.35;;
31730;SDS011;18310;55.586;12.286;2024-02-16T09:38:03;8.82;;;5.85;;
31730;SDS011;18310;55.586;12.286;2024-02-16T09:41:07;8.32;;;5.22;;
31730;SDS011;18310;55.586;12.286;2024-02-16T09:44:11;11.70;;;6.30;;
31730;SDS011;18310;55.586;12.286;2024-02-16T09:47:16;13.52;;;6.18;;
31730;SDS011;18310;55.586;12.286;2024-02-16T09:50:21;12.73;;;5.90;;
31730;SDS011;18310;55.586;12.286;2024-02-16T09:56:32;13.80;;;5.40;;
31730;SDS011;18310;55.586;12.286;2024-02-16T09:59:36;11.30;;;5.38;;
31730;SDS011;18310;55.586;12.286;2024-02-16T10:02:43;8.05;;;5.25;;
31730;SDS011;18310;55.586;12.286;2024-02-16T10:05:49;10.13;;;4.97;;
31730;SDS011;18310;55.586;12.286;2024-02-16T10:08:55;13.23;;;5.40;;
31730;SDS011;18310;55.586;12.286;2024-02-16T10:12:00;13.65;;;4.72;;
31730;SDS011;18310;55.586;12.286;2024-02-16T10:18:09;9.00;;;4.00;;
31730;SDS011;18310;55.586;12.286;2024-02-16T10:21:13;8.82;;;4.60;;
31730;SDS011;18310;55.586;12.286;2024-02-16T10:24:31;14.75;;;4.95;;
31730;SDS011;18310;55.586;12.286;2024-02-16T10:27:35;9.80;;;4.65;;
31730;SDS011;18310;55.586;12.286;2024-02-16T10:30:43;9.07;;;4.63;;
31730;SDS011;18310;55.586;12.286;2024-02-16T10:33:48;8.18;;;4.43;;
31730;SDS011;18310;55.586;12.286;2024-02-16T10:36:57;10.95;;;4.75;;
31730;SDS011;18310;55.586;12.286;2024-02-16T10:40:02;7.95;;;4.25;;
31730;SDS011;18310;55.586;12.286;2024-02-16T10:43:07;9.70;;;4.38;;
31730;SDS011;18310;55.586;12.286;2024-02-16T10:46:12;9.15;;;4.82;;
31730;SDS011;18310;55.586;12.286;2024-02-16T10:49:18;8.40;;;4.75;;
31730;SDS011;18310;55.586;12.286;2024-02-16T10:52:23;9.77;;;4.65;;
31730;SDS011;18310;55.586;12.286;2024-02-16T10:55:28;10.45;;;4.50;;
31730;SDS011;18310;55.586;12.286;2024-02-16T10:58:33;8.27;;;4.28;;
31730;SDS011;18310;55.586;12.286;2024-02-16T11:01:37;8.48;;;4.68;;
31730;SDS011;18310;55.586;12.286;2024-02-16T11:04:45;8.18;;;4.10;;
31730;SDS011;18310;55.586;12.286;2024-02-16T11:07:58;7.35;;;3.72;;
31730;SDS011;18310;55.586;12.286;2024-02-16T11:11:04;8.68;;;4.18;;
31730;SDS011;18310;55.586;12.286;2024-02-16T11:14:14;10.40;;;3.72;;
31730;SDS011;18310;55.586;12.286;2024-02-16T11:17:24;8.73;;;4.40;;
31730;SDS011;18310;55.586;12.286;2024-02-16T11:20:37;7.65;;;4.03;;
31730;SDS011;18310;55.586;12.286;2024-02-16T11:23:44;8.32;;;3.92;;
31730;SDS011;18310;55.586;12.286;2024-02-16T11:26:47;7.18;;;4.07;;
31730;SDS011;18310;55.586;12.286;2024-02-16T11:29:52;8.73;;;3.97;;
31730;SDS011;18310;55.586;12.286;2024-02-16T11:33:05;6.75;;;3.83;;
31730;SDS011;18310;55.586;12.286;2024-02-16T11:36:10;7.60;;;4.43;;
31730;SDS011;18310;55.586;12.286;2024-02-16T11:39:14;11.02;;;4.20;;
31730;SDS011;18310;55.586;12.286;2024-02-16T11:42:19;6.45;;;3.80;;
31730;SDS011;18310;55.586;12.286;2024-02-16T11:45:25;6.78;;;4.07;;
31730;SDS011;18310;55.586;12.286;2024-02-16T11:48:32;7.90;;;4.10;;
31730;SDS011;18310;55.586;12.286;2024-02-16T11:51:40;7.13;;;3.95;;
31730;SDS011;18310;55.586;12.286;2024-02-16T11:54:44;7.57;;;4.38;;
31730;SDS011;18310;55.586;12.286;2024-02-16T11:57:48;6.05;;;3.63;;
31730;SDS011;18310;55.586;12.286;2024-02-16T12:00:53;7.80;;;4.05;;
31730;SDS011;18310;55.586;12.286;2024-02-16T12:04:05;8.40;;;3.65;;
31730;SDS011;18310;55.586;12.286;2024-02-16T12:07:13;10.95;;;4.00;;
31730;SDS011;18310;55.586;12.286;2024-02-16T12:10:17;8.40;;;4.03;;
31730;SDS011;18310;55.586;12.286;2024-02-16T12:13:22;8.30;;;3.85;;
31730;SDS011;18310;55.586;12.286;2024-02-16T12:16:26;8.88;;;4.53;;
31730;SDS011;18310;55.586;12.286;2024-02-16T12:19:31;5.57;;;3.60;;
31730;SDS011;18310;55.586;12.286;2024-02-16T12:22:38;7.25;;;3.92;;
31730;SDS011;18310;55.586;12.286;2024-02-16T12:25:42;7.55;;;3.72;;
31730;SDS011;18310;55.586;12.286;2024-02-16T12:28:50;8.15;;;4.40;;
31730;SDS011;18310;55.586;12.286;2024-02-16T12:31:54;5.78;;;3.50;;
31730;SDS011;18310;55.586;12.286;2024-02-16T12:38:04;7.00;;;3.58;;
31730;SDS011;18310;55.586;12.286;2024-02-16T12:41:08;9.50;;;4.03;;
31730;SDS011;18310;55.586;12.286;2024-02-16T12:44:12;5.90;;;3.67;;
31730;SDS011;18310;55.586;12.286;2024-02-16T12:47:17;8.90;;;3.58;;
31730;SDS011;18310;55.586;12.286;2024-02-16T12:50:22;14.15;;;3.40;;
31730;SDS011;18310;55.586;12.286;2024-02-16T12:53:32;6.30;;;3.38;;
31730;SDS011;18310;55.586;12.286;2024-02-16T13:00:08;8.80;;;3.58;;
31730;SDS011;18310;55.586;12.286;2024-02-16T13:03:15;8.23;;;3.85;;
31730;SDS011;18310;55.586;12.286;2024-02-16T13:06:21;8.88;;;4.05;;
31730;SDS011;18310;55.586;12.286;2024-02-16T13:09:34;8.05;;;3.92;;
31730;SDS011;18310;55.586;12.286;2024-02-16T13:12:47;7.68;;;3.70;;
31730;SDS011;18310;55.586;12.286;2024-02-16T13:19:01;5.57;;;3.00;;
31730;SDS011;18310;55.586;12.286;2024-02-16T13:22:07;8.55;;;3.15;;
31730;SDS011;18310;55.586;12.286;2024-02-16T13:25:11;9.38;;;3.30;;
31730;SDS011;18310;55.586;12.286;2024-02-16T13:28:18;10.95;;;3.90;;
31730;SDS011;18310;55.586;12.286;2024-02-16T13:31:24;9.23;;;3.20;;
31730;SDS011;18310;55.586;12.286;2024-02-16T13:34:29;5.57;;;3.00;;
31730;SDS011;18310;55.586;12.286;2024-02-16T13:37:34;6.78;;;3.00;;
31730;SDS011;18310;55.586;12.286;2024-02-16T13:43:42;6.53;;;2.83;;
31730;SDS011;18310;55.586;12.286;2024-02-16T13:46:49;6.97;;;2.65;;
31730;SDS011;18310;55.586;12.286;2024-02-16T13:49:55;7.05;;;2.55;;
31730;SDS011;18310;55.586;12.286;2024-02-16T13:53:02;6.63;;;2.40;;
31730;SDS011;18310;55.586;12.286;2024-02-16T13:56:06;13.45;;;2.90;;
31730;SDS011;18310;55.586;12.286;2024-02-16T13:59:10;7.30;;;2.53;;
31730;SDS011;18310;55.586;12.286;2024-02-16T14:02:19;6.28;;;2.42;;
31730;SDS011;18310;55.586;12.286;2024-02-16T14:05:23;6.47;;;3.15;;
31730;SDS011;18310;55.586;12.286;2024-02-16T14:08:29;6.03;;;2.60;;
31730;SDS011;18310;55.586;12.286;2024-02-16T14:11:39;4.88;;;2.50;;
31730;SDS011;18310;55.586;12.286;2024-02-16T14:14:45;4.95;;;2.40;;
31730;SDS011;18310;55.586;12.286;2024-02-16T14:24:00;4.30;;;2.33;;
31730;SDS011;18310;55.586;12.286;2024-02-16T14:30:08;5.23;;;2.47;;
31730;SDS011;18310;55.586;12.286;2024-02-16T14:37:06;10.50;;;2.50;;
31730;SDS011;18310;55.586;12.286;2024-02-16T14:40:09;5.82;;;2.72;;
31730;SDS011;18310;55.586;12.286;2024-02-16T14:43:14;5.32;;;2.67;;
31730;SDS011;18310;55.586;12.286;2024-02-16T14:46:17;5.57;;;2.40;;
31730;SDS011;18310;55.586;12.286;2024-02-16T14:49:22;5.03;;;2.20;;
31730;SDS011;18310;55.586;12.286;2024-02-16T14:52:27;7.00;;;2.60;;
31730;SDS011;18310;55.586;12.286;2024-02-16T14:55:30;6.05;;;2.42;;
31730;SDS011;18310;55.586;12.286;2024-02-16T14:58:34;8.52;;;2.50;;
31730;SDS011;18310;55.586;12.286;2024-02-16T15:01:37;5.93;;;2.58;;
31730;SDS011;18310;55.586;12.286;2024-02-16T15:04:40;4.70;;;2.45;;
31730;SDS011;18310;55.586;12.286;2024-02-16T15:07:45;3.70;;;1.90;;
31730;SDS011;18310;55.586;12.286;2024-02-16T15:10:48;6.55;;;2.42;;
31730;SDS011;18310;55.586;12.286;2024-02-16T15:13:52;4.97;;;2.22;;
31730;SDS011;18310;55.586;12.286;2024-02-16T15:16:55;7.82;;;2.80;;
31730;SDS011;18310;55.586;12.286;2024-02-16T15:19:58;6.03;;;2.00;;
31730;SDS011;18310;55.586;12.286;2024-02-16T15:23:06;4.50;;;2.03;;
31730;SDS011;18310;55.586;12.286;2024-02-16T15:26:10;5.38;;;2.80;;
31730;SDS011;18310;55.586;12.286;2024-02-16T15:29:13;9.05;;;2.67;;
31730;SDS011;18310;55.586;12.286;2024-02-16T15:32:17;5.38;;;2.25;;
31730;SDS011;18310;55.586;12.286;2024-02-16T15:35:20;7.22;;;2.83;;
31730;SDS011;18310;55.586;12.286;2024-02-16T15:38:24;4.77;;;2.53;;
31730;SDS011;18310;55.586;12.286;2024-02-16T15:41:28;9.93;;;2.60;;
31730;SDS011;18310;55.586;12.286;2024-02-16T15:44:31;6.40;;;2.70;;
31730;SDS011;18310;55.586;12.286;2024-02-16T15:47:34;6.50;;;2.40;;
31730;SDS011;18310;55.586;12.286;2024-02-16T15:50:38;4.80;;;2.57;;
31730;SDS011;18310;55.586;12.286;2024-02-16T15:56:46;8.07;;;2.77;;
31730;SDS011;18310;55.586;12.286;2024-02-16T15:59:53;4.25;;;2.67;;
31730;SDS011;18310;55.586;12.286;2024-02-16T16:02:56;5.72;;;3.20;;
31730;SDS011;18310;55.586;12.286;2024-02-16T16:06:03;5.45;;;2.88;;
31730;SDS011;18310;55.586;12.286;2024-02-16T16:09:08;7.90;;;2.83;;
31730;SDS011;18310;55.586;12.286;2024-02-16T16:12:12;7.13;;;3.03;;
31730;SDS011;18310;55.586;12.286;2024-02-16T16:15:16;6.72;;;3.03;;
31730;SDS011;18310;55.586;12.286;2024-02-16T16:18:19;7.68;;;3.22;;
31730;SDS011;18310;55.586;12.286;2024-02-16T16:21:23;5.35;;;2.75;;
31730;SDS011;18310;55.586;12.286;2024-02-16T16:24:28;6.72;;;3.22;;
31730;SDS011;18310;55.586;12.286;2024-02-16T16:27:32;6.15;;;3.42;;
31730;SDS011;18310;55.586;12.286;2024-02-16T16:30:40;6.63;;;3.03;;
31730;SDS011;18310;55.586;12.286;2024-02-16T16:33:43;4.93;;;2.97;;
31730;SDS011;18310;55.586;12.286;2024-02-16T16:36:47;9.48;;;3.75;;
31730;SDS011;18310;55.586;12.286;2024-02-16T16:39:51;8.63;;;4.40;;
31730;SDS011;18310;55.586;12.286;2024-02-16T16:42:54;15.40;;;4.43;;
31730;SDS011;18310;55.586;12.286;2024-02-16T16:45:57;7.88;;;4.50;;
31730;SDS011;18310;55.586;12.286;2024-02-16T16:49:01;8.80;;;4.60;;
31730;SDS011;18310;55.586;12.286;2024-02-16T16:52:05;8.85;;;5.45;;
31730;SDS011;18310;55.586;12.286;2024-02-16T16:55:10;10.73;;;5.38;;
31730;SDS011;18310;55.586;12.286;2024-02-16T16:58:13;10.60;;;5.45;;
31730;SDS011;18310;55.586;12.286;2024-02-16T17:01:17;8.88;;;5.65;;
31730;SDS011;18310;55.586;12.286;2024-02-16T17:04:20;9.80;;;5.27;;
31730;SDS011;18310;55.586;12.286;2024-02-16T17:07:23;13.43;;;5.80;;
31730;SDS011;18310;55.586;12.286;2024-02-16T17:10:28;8.63;;;6.03;;
31730;SDS011;18310;55.586;12.286;2024-02-16T17:13:32;11.55;;;6.28;;
31730;SDS011;18310;55.586;12.286;2024-02-16T17:16:39;13.93;;;7.53;;
31730;SDS011;18310;55.586;12.286;2024-02-16T17:19:42;10.43;;;6.80;;
31730;SDS011;18310;55.586;12.286;2024-02-16T17:22:47;10.93;;;7.18;;
31730;SDS011;18310;55.586;12.286;2024-02-16T17:25:52;9.32;;;6.68;;
31730;SDS011;18310;55.586;12.286;2024-02-16T17:28:56;9.63;;;7.25;;
31730;SDS011;18310;55.586;12.286;2024-02-16T17:32:54;10.27;;;6.28;;
31730;SDS011;18310;55.586;12.286;2024-02-16T17:36:00;9.30;;;6.60;;
31730;SDS011;18310;55.586;12.286;2024-02-16T17:39:03;10.23;;;6.87;;
31730;SDS011;18310;55.586;12.286;2024-02-16T17:42:07;11.88;;;7.32;;
31730;SDS011;18310;55.586;12.286;2024-02-16T17:45:10;16.50;;;7.78;;
31730;SDS011;18310;55.586;12.286;2024-02-16T17:48:15;14.60;;;8.43;;
31730;SDS011;18310;55.586;12.286;2024-02-16T17:51:18;10.93;;;8.07;;
31730;SDS011;18310;55.586;12.286;2024-02-16T17:54:22;13.27;;;6.90;;
31730;SDS011;18310;55.586;12.286;2024-02-16T18:03:36;7.40;;;5.68;;
31730;SDS011;18310;55.586;12.286;2024-02-16T18:06:40;8.90;;;5.03;;
31730;SDS011;18310;55.586;12.286;2024-02-16T18:12:47;6.95;;;4.40;;
31730;SDS011;18310;55.586;12.286;2024-02-16T18:15:51;6.43;;;3.80;;
31730;SDS011;18310;55.586;12.286;2024-02-16T18:18:58;4.57;;;3.55;;
31730;SDS011;18310;55.586;12.286;2024-02-16T18:22:01;5.78;;;3.45;;
31730;SDS011;18310;55.586;12.286;2024-02-16T18:25:05;5.80;;;3.87;;
31730;SDS011;18310;55.586;12.286;2024-02-16T18:28:09;5.30;;;3.42;;
31730;SDS011;18310;55.586;12.286;2024-02-16T18:31:14;5.40;;;3.10;;
31730;SDS011;18310;55.586;12.286;2024-02-16T18:34:18;4.40;;;2.95;;
31730;SDS011;18310;55.586;12.286;2024-02-16T18:37:21;4.55;;;2.83;;
31730;SDS011;18310;55.586;12.286;2024-02-16T18:40:25;4.00;;;2.57;;
31730;SDS011;18310;55.586;12.286;2024-02-16T18:43:28;4.10;;;2.58;;
31730;SDS011;18310;55.586;12.286;2024-02-16T18:46:32;4.68;;;2.80;;
31730;SDS011;18310;55.586;12.286;2024-02-16T18:49:37;4.65;;;2.42;;
31730;SDS011;18310;55.586;12.286;2024-02-16T18:52:41;3.25;;;2.13;;
31730;SDS011;18310;55.586;12.286;2024-02-16T18:55:45;4.30;;;2.80;;
31730;SDS011;18310;55.586;12.286;2024-02-16T18:58:48;4.93;;;2.30;;
31730;SDS011;18310;55.586;12.286;2024-02-16T19:01:51;4.67;;;2.40;;
31730;SDS011;18310;55.586;12.286;2024-02-16T19:04:56;3.92;;;2.47;;
31730;SDS011;18310;55.586;12.286;2024-02-16T19:08:00;3.30;;;2.00;;
31730;SDS011;18310;55.586;12.286;2024-02-16T19:11:03;3.55;;;2.05;;
31730;SDS011;18310;55.586;12.286;2024-02-16T19:14:06;3.78;;;2.28;;
31730;SDS011;18310;55.586;12.286;2024-02-16T19:17:10;3.77;;;2.30;;
31730;SDS011;18310;55.586;12.286;2024-02-16T19:20:15;5.27;;;2.40;;